createdAt,value
2023-02-06T00:01:44.327Z,103655.56
2023-02-06T00:04:13.964Z,103640.41
2023-02-06T00:06:41.885Z,103635.56
2023-02-06T00:09:09.801Z,103630.25
2023-02-06T00:11:37.684Z,103625.69
2023-02-06T00:14:07.038Z,103625.00
2023-02-06T00:16:35.198Z,103623.09
2023-02-06T00:19:03.093Z,103613.09
2023-02-06T00:21:32.414Z,103606.78
2023-02-06T00:24:01.209Z,103602.22
2023-02-06T00:26:29.674Z,103599.69
2023-02-06T00:28:57.571Z,103596.78
2023-02-06T00:31:25.584Z,103598.66
2023-02-06T00:33:53.529Z,103602.22
2023-02-06T00:36:21.735Z,103597.81
2023-02-06T00:38:51.012Z,103599.69
2023-02-06T00:41:18.937Z,103605.09
2023-02-06T00:43:46.885Z,103599.69
2023-02-06T00:46:15.103Z,103599.50
2023-02-06T00:48:43.081Z,103596.09
2023-02-06T00:51:11.338Z,103593.38
2023-02-06T00:53:39.345Z,103584.38
2023-02-06T00:56:08.990Z,103588.81
2023-02-06T00:58:36.883Z,103591.53
2023-02-06T01:01:04.823Z,103598.09
2023-02-06T01:03:32.720Z,103596.97
2023-02-06T01:06:00.637Z,103590.66
2023-02-06T01:08:28.602Z,103586.22
2023-02-06T01:10:56.480Z,103591.66
2023-02-06T01:13:25.769Z,103592.66
2023-02-06T01:15:53.704Z,103597.97
2023-02-06T01:18:21.592Z,103597.97
2023-02-06T01:20:49.499Z,103593.38
2023-02-06T01:23:17.357Z,103586.22
2023-02-06T01:25:45.493Z,103581.78
2023-02-06T01:28:13.469Z,103585.38
2023-02-06T01:30:42.845Z,103595.38
2023-02-06T01:33:10.787Z,103597.09
2023-02-06T01:35:38.948Z,103594.50
2023-02-06T01:38:06.835Z,103600.81
2023-02-06T01:40:34.760Z,103597.41
2023-02-06T01:43:03.056Z,103604.53
2023-02-06T01:45:36.995Z,103605.38
2023-02-06T01:48:07.468Z,103599.09
2023-02-06T01:50:35.729Z,103599.94
2023-02-06T01:53:03.657Z,103596.38
2023-02-06T01:55:32.874Z,103588.22
2023-02-06T01:58:00.795Z,103584.81
2023-02-06T02:00:28.749Z,103596.38
2023-02-06T02:02:56.696Z,103594.50
2023-02-06T02:05:26.284Z,103592.97
2023-02-06T02:08:01.154Z,103592.78
2023-02-06T02:10:30.242Z,103606.38
2023-02-06T02:12:58.083Z,103612.66
2023-02-06T02:15:29.338Z,103617.25
2023-02-06T02:18:02.499Z,103605.53
2023-02-06T02:21:20.829Z,103604.53
2023-02-06T02:23:51.137Z,103601.97
2023-02-06T02:26:33.690Z,103600.94
2023-02-06T02:29:37.475Z,103600.13
2023-02-06T02:32:18.183Z,103605.53
2023-02-06T02:35:07.832Z,103599.25
2023-02-06T02:37:43.348Z,103591.09
2023-02-06T02:40:17.634Z,103555.22
2023-02-06T02:42:55.924Z,103578.53
2023-02-06T02:45:26.656Z,103585.66
2023-02-06T02:48:06.162Z,103553.09
2023-02-06T02:50:34.045Z,103593.81
2023-02-06T02:53:03.705Z,103597.41
2023-02-06T02:55:32.661Z,103597.41
2023-02-06T02:58:02.807Z,103591.09
2023-02-06T03:00:30.823Z,103602.97
2023-02-06T03:02:58.754Z,103606.53
2023-02-06T03:05:26.926Z,103596.25
2023-02-06T03:08:02.037Z,103611.97
2023-02-06T03:10:34.652Z,103611.97
2023-02-06T03:13:04.874Z,103617.41
2023-02-06T03:15:38.194Z,103605.69
2023-02-06T03:18:08.746Z,103621.84
2023-02-06T03:20:36.636Z,103623.69
2023-02-06T03:23:04.638Z,103625.56
2023-02-06T03:25:35.444Z,103616.41
2023-02-06T03:28:03.909Z,103621.84
2023-02-06T03:30:31.783Z,103621.84
2023-02-06T03:33:02.589Z,103620.13
2023-02-06T03:35:31.800Z,103608.41
2023-02-06T03:37:59.676Z,103606.53
2023-02-06T03:40:27.741Z,103608.25
2023-02-06T03:42:58.802Z,103597.53
2023-02-06T03:45:28.542Z,103598.53
2023-02-06T03:47:57.789Z,103607.41
2023-02-06T03:50:25.739Z,103604.69
2023-02-06T03:52:53.669Z,103607.41
2023-02-06T03:55:23.087Z,103605.69
2023-02-06T03:57:52.926Z,103609.25
2023-02-06T04:00:22.902Z,103600.25
2023-02-06T04:02:51.028Z,103600.25
2023-02-06T04:05:19.348Z,103592.97
2023-02-06T04:07:47.275Z,103581.25
2023-02-06T04:10:15.175Z,103587.53
2023-02-06T04:12:43.031Z,103589.25
2023-02-06T04:15:11.300Z,103591.09
2023-02-06T04:17:57.503Z,103587.53
2023-02-06T04:20:27.059Z,103601.25
2023-02-06T04:22:54.942Z,103592.38
2023-02-06T04:25:23.095Z,103593.41
2023-02-06T04:27:53.702Z,103598.97
2023-02-06T04:30:21.887Z,103600.81
2023-02-06T04:32:51.164Z,103620.84
2023-02-06T04:35:19.479Z,103626.25
2023-02-06T04:37:47.387Z,103639.84
2023-02-06T04:40:15.255Z,103635.41
2023-02-06T04:42:43.195Z,103633.84
2023-02-06T04:45:11.527Z,103631.13
2023-02-06T04:47:39.432Z,103634.41
2023-02-06T04:50:10.489Z,103623.53
2023-02-06T04:52:38.358Z,103618.13
2023-02-06T04:55:06.889Z,103621.81
2023-02-06T04:57:34.838Z,103622.69
2023-02-06T05:00:02.769Z,103621.13
2023-02-06T05:02:30.658Z,103627.13
2023-02-06T05:04:58.909Z,103627.13
2023-02-06T05:07:28.165Z,103630.69
2023-02-06T05:09:56.051Z,103633.41
2023-02-06T05:12:24.633Z,103634.28
2023-02-06T05:14:52.834Z,103627.13
2023-02-06T05:17:20.751Z,103632.56
2023-02-06T05:19:48.793Z,103637.84
2023-02-06T05:22:16.686Z,103644.28
2023-02-06T05:24:46.258Z,103640.56
2023-02-06T05:27:14.249Z,103629.72
2023-02-06T05:29:42.133Z,103619.69
2023-02-06T05:32:10.026Z,103619.84
2023-02-06T05:34:38.205Z,103624.28
2023-02-06T05:37:06.096Z,103634.28
2023-02-06T05:39:33.994Z,103630.69
2023-02-06T05:42:03.280Z,103629.72
2023-02-06T05:44:31.953Z,103622.41
2023-02-06T05:46:59.905Z,103612.41
2023-02-06T05:49:27.861Z,103609.69
2023-02-06T05:51:55.794Z,103610.56
2023-02-06T05:54:24.069Z,103607.84
2023-02-06T05:56:51.981Z,103614.97
2023-02-06T05:59:21.517Z,103623.13
2023-02-06T06:01:49.455Z,103611.38
2023-02-06T06:04:17.708Z,103603.25
2023-02-06T06:06:45.647Z,103605.94
2023-02-06T06:09:13.546Z,103608.66
2023-02-06T06:11:41.583Z,103601.38
2023-02-06T06:14:09.738Z,103599.53
2023-02-06T06:16:40.639Z,103595.94
2023-02-06T06:19:08.664Z,103600.38
2023-02-06T06:21:36.592Z,103593.22
2023-02-06T06:24:05.039Z,103592.38
2023-02-06T06:26:33.186Z,103597.81
2023-02-06T06:29:01.116Z,103603.09
2023-02-06T06:31:29.058Z,103596.81
2023-02-06T06:33:58.376Z,103605.81
2023-02-06T06:36:26.559Z,103604.97
2023-02-06T06:38:54.459Z,103597.66
2023-02-06T06:41:22.380Z,103604.09
2023-02-06T06:43:51.598Z,103612.25
2023-02-06T06:46:20.004Z,103621.25
2023-02-06T06:48:47.942Z,103603.09
2023-02-06T06:51:17.204Z,103601.25
2023-02-06T06:53:45.081Z,103606.69
2023-02-06T06:56:14.486Z,103596.69
2023-02-06T06:58:42.454Z,103599.69
2023-02-06T07:01:10.441Z,103594.94
2023-02-06T07:03:38.382Z,103605.81
2023-02-06T07:06:06.612Z,103609.41
2023-02-06T07:08:41.708Z,103614.81
2023-02-06T07:11:09.638Z,103613.09
2023-02-06T07:13:37.591Z,103613.97
2023-02-06T07:16:06.376Z,103607.69
2023-02-06T07:18:34.266Z,103604.09
2023-02-06T07:21:03.443Z,103604.81
2023-02-06T07:23:31.357Z,103605.53
2023-02-06T07:26:02.323Z,103608.25
2023-02-06T07:28:30.265Z,103613.69
2023-02-06T07:31:01.248Z,103609.41
2023-02-06T07:33:29.227Z,103614.53
2023-02-06T07:35:57.533Z,103609.09
2023-02-06T07:38:25.534Z,103604.69
2023-02-06T07:40:53.458Z,103595.50
2023-02-06T07:43:22.824Z,103607.25
2023-02-06T07:45:51.031Z,103610.97
2023-02-06T07:48:19.056Z,103604.69
2023-02-06T07:50:46.977Z,103604.53
2023-02-06T07:53:14.880Z,103598.41
2023-02-06T07:55:43.049Z,103601.81
2023-02-06T07:58:12.168Z,103598.22
2023-02-06T08:00:41.597Z,103592.97
2023-02-06T08:03:09.483Z,103599.25
2023-02-06T08:05:39.408Z,103594.94
2023-02-06T08:08:07.388Z,103602.09
2023-02-06T08:10:35.321Z,103601.13
2023-02-06T08:13:03.273Z,103604.69
2023-02-06T08:15:31.488Z,103599.38
2023-02-06T08:18:00.757Z,103597.66
2023-02-06T08:20:28.723Z,103596.69
2023-02-06T08:22:57.246Z,103606.69
2023-02-06T08:25:25.755Z,103604.97
2023-02-06T08:27:54.560Z,103602.25
2023-02-06T08:30:22.566Z,103596.81
2023-02-06T08:32:50.535Z,103607.53
2023-02-06T08:35:20.145Z,103622.13
2023-02-06T08:37:48.373Z,103631.13
2023-02-06T08:40:16.294Z,103623.97
2023-02-06T08:42:44.227Z,103609.53
2023-02-06T08:45:12.437Z,103599.53
2023-02-06T08:47:40.338Z,103591.38
2023-02-06T08:50:08.683Z,103595.09
2023-02-06T08:52:38.001Z,103598.66
2023-02-06T08:55:06.762Z,103607.69
2023-02-06T08:57:34.805Z,103623.13
2023-02-06T09:00:02.835Z,103627.56
2023-02-06T09:02:30.737Z,103618.53
2023-02-06T09:04:59.335Z,103622.13
2023-02-06T09:07:27.817Z,103619.41
2023-02-06T09:09:57.129Z,103629.41
2023-02-06T09:12:25.077Z,103623.13
2023-02-06T09:14:53.590Z,103618.53
2023-02-06T09:17:21.486Z,103611.25
2023-02-06T09:19:49.451Z,103607.69
2023-02-06T09:22:17.375Z,103612.56
2023-02-06T09:24:45.573Z,103624.97
2023-02-06T09:27:15.537Z,103626.00
2023-02-06T09:29:43.448Z,103614.09
2023-02-06T09:32:11.382Z,103615.81
2023-02-06T09:34:39.318Z,103609.53
2023-02-06T09:37:07.307Z,103621.25
2023-02-06T09:39:35.231Z,103621.25
2023-02-06T09:42:05.739Z,103593.13
2023-02-06T09:44:38.119Z,103614.97
2023-02-06T09:47:18.174Z,103623.13
2023-02-06T09:49:47.515Z,103625.81
2023-02-06T09:52:40.201Z,103631.25
2023-02-06T09:55:10.756Z,103612.00
2023-02-06T09:57:42.795Z,103618.53
2023-02-06T10:00:18.873Z,103632.97
2023-02-06T10:03:00.151Z,103632.13
2023-02-06T10:05:29.999Z,103625.81
2023-02-06T10:08:03.604Z,103626.69
2023-02-06T10:10:36.421Z,103631.25
2023-02-06T10:13:06.596Z,103631.25
2023-02-06T10:15:39.388Z,103623.97
2023-02-06T10:18:10.325Z,103625.81
2023-02-06T10:20:40.149Z,103620.41
2023-02-06T10:23:12.886Z,103450.53
2023-02-06T10:25:43.343Z,103589.13
2023-02-06T10:28:22.576Z,103615.81
2023-02-06T10:31:00.523Z,103623.97
2023-02-06T10:33:30.807Z,103605.25
2023-02-06T10:36:01.119Z,103605.94
2023-02-06T10:38:53.353Z,103595.09
2023-02-06T10:41:26.496Z,103602.25
2023-02-06T10:43:56.301Z,103594.25
2023-02-06T10:46:38.745Z,103597.66
2023-02-06T10:49:11.318Z,103600.38
2023-02-06T10:51:42.439Z,103589.66
2023-02-06T10:54:13.340Z,103541.25
2023-02-06T10:56:44.268Z,103576.81
2023-02-06T10:59:14.869Z,103572.38
2023-02-06T11:01:44.304Z,103574.09
2023-02-06T11:04:15.038Z,103575.94
2023-02-06T11:06:43.382Z,103573.22
2023-02-06T11:09:11.505Z,103566.78
2023-02-06T11:11:40.962Z,103560.50
2023-02-06T11:14:14.497Z,103547.63
2023-02-06T11:16:42.482Z,103563.22
2023-02-06T11:19:16.669Z,103561.50
2023-02-06T11:21:53.593Z,103565.06
2023-02-06T11:24:22.304Z,103569.50
2023-02-06T11:26:52.910Z,103561.50
2023-02-06T11:29:21.831Z,103547.91
2023-02-06T11:31:51.423Z,103550.50
2023-02-06T11:34:26.397Z,103550.50
2023-02-06T11:36:55.322Z,103547.06
2023-02-06T11:39:25.495Z,103550.50
2023-02-06T11:41:58.147Z,103543.34
2023-02-06T11:44:26.558Z,103537.22
2023-02-06T11:46:54.505Z,103535.19
2023-02-06T11:49:29.053Z,103534.19
2023-02-06T11:51:59.736Z,103536.06
2023-02-06T11:54:29.245Z,103528.63
2023-02-06T11:57:03.343Z,103526.06
2023-02-06T11:59:33.922Z,103530.50
2023-02-06T12:02:05.614Z,103516.19
2023-02-06T12:04:38.386Z,103509.75
2023-02-06T12:07:12.228Z,103506.91
2023-02-06T12:09:40.204Z,103493.47
2023-02-06T12:12:12.940Z,103495.31
2023-02-06T12:14:42.922Z,103494.31
2023-02-06T12:17:16.851Z,103493.47
2023-02-06T12:19:50.049Z,103487.03
2023-02-06T12:22:19.673Z,103480.47
2023-02-06T12:24:49.155Z,103479.75
2023-02-06T12:27:19.729Z,103498.75
2023-02-06T12:29:52.422Z,103490.59
2023-02-06T12:32:22.192Z,103479.47
2023-02-06T12:34:54.457Z,103487.88
2023-02-06T12:37:26.545Z,103489.56
2023-02-06T12:39:54.482Z,103484.31
2023-02-06T12:42:33.002Z,103476.16
2023-02-06T12:45:03.024Z,103472.44
2023-02-06T12:47:32.114Z,103479.56
2023-02-06T12:50:03.164Z,103477.88
2023-02-06T12:52:32.756Z,103471.72
2023-02-06T12:55:07.439Z,103403.69
2023-02-06T12:57:35.609Z,103462.41
2023-02-06T13:00:48.446Z,103462.41
2023-02-06T13:03:25.571Z,103455.75
2023-02-06T13:05:55.613Z,103450.72
2023-02-06T13:08:26.842Z,103460.56
2023-02-06T13:11:02.507Z,103450.53
2023-02-06T13:13:31.212Z,103448.84
2023-02-06T13:16:00.475Z,103455.97
2023-02-06T13:19:04.355Z,103445.44
2023-02-06T13:21:35.189Z,103458.69
2023-02-06T13:24:17.120Z,103460.56
2023-02-06T13:27:13.759Z,103455.97
2023-02-06T13:29:42.975Z,103439.84
2023-02-06T13:32:47.318Z,103434.41
2023-02-06T13:35:20.424Z,103446.97
2023-02-06T13:37:50.177Z,103452.41
2023-02-06T13:40:30.481Z,103441.53
2023-02-06T13:43:00.516Z,103446.84
2023-02-06T13:45:30.415Z,103440.53
2023-02-06T13:48:23.868Z,103438.41
2023-02-06T13:51:16.943Z,103436.97
2023-02-06T13:54:17.560Z,103435.97
2023-02-06T13:56:53.324Z,103401.19
2023-02-06T13:59:23.467Z,103437.81
2023-02-06T14:01:51.438Z,103438.69
2023-02-06T14:04:22.806Z,103435.97
2023-02-06T14:07:25.451Z,103430.00
2023-02-06T14:10:32.259Z,103425.09
2023-02-06T14:13:05.193Z,103422.69
2023-02-06T14:15:37.224Z,103427.81
2023-02-06T14:18:16.858Z,103384.19
2023-02-06T14:20:50.639Z,103436.81
2023-02-06T14:23:25.601Z,103441.41
2023-02-06T14:26:00.558Z,103423.16
2023-02-06T14:28:32.265Z,103440.41
2023-02-06T14:31:07.123Z,103437.81
2023-02-06T14:33:45.615Z,103443.97
2023-02-06T14:36:20.718Z,103443.97
2023-02-06T14:39:11.475Z,103447.56
2023-02-06T14:41:40.854Z,103445.84
2023-02-06T14:44:14.531Z,103440.41
2023-02-06T14:46:43.096Z,103438.69
2023-02-06T14:49:15.416Z,103432.25
2023-02-06T14:51:43.399Z,103434.81
2023-02-06T14:54:30.369Z,103436.69
2023-02-06T14:57:00.379Z,103433.13
2023-02-06T14:59:28.385Z,103426.81
2023-02-06T15:01:56.975Z,103424.97
2023-02-06T15:04:27.150Z,103432.13
2023-02-06T15:06:55.959Z,103431.25
2023-02-06T15:09:26.501Z,103436.69
2023-02-06T15:11:56.642Z,103439.41
2023-02-06T15:14:26.964Z,103443.13
2023-02-06T15:16:56.868Z,103442.97
2023-02-06T15:19:27.129Z,103442.97
2023-02-06T15:21:58.896Z,103444.66
2023-02-06T15:24:44.327Z,103438.38
2023-02-06T15:27:15.359Z,103437.53
2023-02-06T15:29:47.549Z,103442.13
2023-02-06T15:32:21.725Z,103444.66
2023-02-06T15:34:49.726Z,103437.53
2023-02-06T15:37:22.281Z,103438.38
2023-02-06T15:39:50.223Z,103425.09
2023-02-06T15:42:18.166Z,103426.69
2023-02-06T15:44:48.475Z,103423.97
2023-02-06T15:47:17.924Z,103418.53
2023-02-06T15:49:46.715Z,103423.97
2023-02-06T15:52:16.098Z,103422.94
2023-02-06T15:54:45.643Z,103417.50
2023-02-06T15:57:29.230Z,103415.66
2023-02-06T15:59:58.560Z,103407.50
2023-02-06T16:02:30.936Z,103400.34
2023-02-06T16:05:00.693Z,103405.63
2023-02-06T16:07:30.782Z,103412.06
2023-02-06T16:10:03.802Z,103412.94
2023-02-06T16:12:34.183Z,103403.91
2023-02-06T16:15:04.863Z,103404.94
2023-02-06T16:17:33.503Z,103402.91
2023-02-06T16:20:02.690Z,103342.50
2023-02-06T16:22:31.489Z,103417.38
2023-02-06T16:25:15.365Z,103405.63
2023-02-06T16:27:44.331Z,103399.34
2023-02-06T16:30:23.842Z,103407.50
2023-02-06T16:32:52.300Z,103401.06
2023-02-06T16:35:21.467Z,103400.19
2023-02-06T16:37:49.725Z,103401.06
2023-02-06T16:40:18.064Z,103398.34
2023-02-06T16:42:47.422Z,103400.19
2023-02-06T16:45:22.745Z,103406.63
2023-02-06T16:47:50.694Z,103402.91
2023-02-06T16:50:18.725Z,103401.91
2023-02-06T16:52:48.704Z,103389.34
2023-02-06T16:55:18.618Z,103394.78
2023-02-06T16:57:46.652Z,103397.50
2023-02-06T17:00:20.202Z,103392.06
2023-02-06T17:02:48.409Z,103387.63
2023-02-06T17:05:16.694Z,103392.06
2023-02-06T17:07:44.758Z,103382.19
2023-02-06T17:10:13.306Z,103391.19
2023-02-06T17:12:41.308Z,103395.78
2023-02-06T17:15:11.512Z,103394.91
2023-02-06T17:17:40.870Z,103394.78
2023-02-06T17:20:17.255Z,103391.19
2023-02-06T17:22:45.144Z,103389.34
2023-02-06T17:25:13.780Z,103386.63
2023-02-06T17:27:41.874Z,103383.91
2023-02-06T17:30:12.517Z,103381.50
2023-02-06T17:32:41.880Z,103383.03
2023-02-06T17:35:10.488Z,103378.47
2023-02-06T17:37:38.403Z,103381.19
2023-02-06T17:40:07.168Z,103387.47
2023-02-06T17:42:35.117Z,103389.34
2023-02-06T17:45:03.418Z,103395.63
2023-02-06T17:47:31.420Z,103404.63
2023-02-06T17:50:00.925Z,103407.34
2023-02-06T17:52:28.828Z,103406.50
2023-02-06T17:54:57.083Z,103406.50
2023-02-06T17:57:25.704Z,103405.63
2023-02-06T17:59:53.707Z,103402.91
2023-02-06T18:02:21.704Z,103402.78
2023-02-06T18:04:51.080Z,103397.34
2023-02-06T18:07:20.427Z,103389.19
2023-02-06T18:09:48.441Z,103391.91
2023-02-06T18:12:16.576Z,103391.06
2023-02-06T18:14:44.820Z,103391.19
2023-02-06T18:17:12.830Z,103388.34
2023-02-06T18:19:42.667Z,103392.91
2023-02-06T18:22:11.526Z,103386.47
2023-02-06T18:24:41.214Z,103378.34
2023-02-06T18:27:09.744Z,103382.03
2023-02-06T18:29:48.981Z,103373.91
2023-02-06T18:32:17.867Z,103380.19
2023-02-06T18:34:45.799Z,103385.47
2023-02-06T18:37:13.785Z,103381.91
2023-02-06T18:39:43.108Z,103391.78
2023-02-06T18:42:29.324Z,103386.34
2023-02-06T18:44:57.297Z,103391.91
2023-02-06T18:47:25.281Z,103389.47
2023-02-06T18:49:53.229Z,103396.50
2023-02-06T18:52:21.564Z,103399.19
2023-02-06T18:54:51.261Z,103395.50
2023-02-06T18:57:19.196Z,103406.34
2023-02-06T18:59:47.178Z,103410.06
2023-02-06T19:02:15.200Z,103413.66
2023-02-06T19:04:43.496Z,103420.78
2023-02-06T19:07:11.764Z,103425.22
2023-02-06T19:09:39.786Z,103414.50
2023-02-06T19:12:09.571Z,103406.34
2023-02-06T19:14:37.851Z,103406.34
2023-02-06T19:17:05.778Z,103407.22
2023-02-06T19:19:33.836Z,103411.78
2023-02-06T19:22:01.919Z,103417.22
2023-02-06T19:24:30.695Z,103409.06
2023-02-06T19:26:58.835Z,103407.34
2023-02-06T19:29:35.477Z,103403.63
2023-02-06T19:32:04.091Z,103395.34
2023-02-06T19:34:36.297Z,103402.63
2023-02-06T19:37:04.697Z,103402.78
2023-02-06T19:39:34.242Z,103406.34
2023-02-06T19:42:02.996Z,103403.63
2023-02-06T19:44:33.417Z,103409.94
2023-02-06T19:47:02.192Z,103397.19
2023-02-06T19:49:30.274Z,103395.50
2023-02-06T19:51:58.254Z,103408.22
2023-02-06T19:54:27.032Z,103412.78
2023-02-06T19:56:55.102Z,103417.38
2023-02-06T19:59:24.031Z,103425.50
2023-02-06T20:01:54.197Z,103424.66
2023-02-06T20:04:23.373Z,103424.66
2023-02-06T20:06:51.617Z,103417.38
2023-02-06T20:09:20.793Z,103423.66
2023-02-06T20:11:49.405Z,103414.66
2023-02-06T20:14:17.836Z,103412.94
2023-02-06T20:16:46.204Z,103417.38
2023-02-06T20:19:16.625Z,103420.06
2023-02-06T20:21:46.145Z,103424.66
2023-02-06T20:24:16.068Z,103430.94
2023-02-06T20:26:44.168Z,103422.06
2023-02-06T20:29:17.932Z,103428.22
2023-02-06T20:31:45.980Z,103421.06
2023-02-06T20:34:15.654Z,103414.09
2023-02-06T20:36:44.457Z,103417.38
2023-02-06T20:39:13.518Z,103420.94
2023-02-06T20:41:41.550Z,103415.66
2023-02-06T20:44:11.171Z,103420.06
2023-02-06T20:46:39.615Z,103430.09
2023-02-06T20:49:09.675Z,103426.38
2023-02-06T20:51:38.997Z,103426.38
2023-02-06T20:54:07.149Z,103426.38
2023-02-06T20:56:35.199Z,103424.66
2023-02-06T20:59:03.235Z,103426.38
2023-02-06T21:01:31.766Z,103411.53
2023-02-06T21:04:00.755Z,103427.38
2023-02-06T21:06:29.309Z,103417.50
2023-02-06T21:09:00.179Z,103426.50
2023-02-06T21:11:29.595Z,103419.22
2023-02-06T21:13:58.635Z,103420.06
2023-02-06T21:16:26.962Z,103420.94
2023-02-06T21:18:55.922Z,103430.09
2023-02-06T21:21:23.977Z,103423.78
2023-02-06T21:23:51.907Z,103414.97
2023-02-06T21:26:23.415Z,103414.66
2023-02-06T21:28:51.430Z,103424.66
2023-02-06T21:31:21.017Z,103415.66
2023-02-06T21:33:49.165Z,103419.34
2023-02-06T21:36:17.414Z,103411.06
2023-02-06T21:38:45.372Z,103405.63
2023-02-06T21:41:14.518Z,103406.50
2023-02-06T21:43:43.869Z,103411.06
2023-02-06T21:46:12.870Z,103411.06
2023-02-06T21:48:41.122Z,103406.63
2023-02-06T21:51:09.621Z,103409.22
2023-02-06T21:53:37.646Z,103402.06
2023-02-06T21:56:06.768Z,103403.06
2023-02-06T21:58:34.745Z,103410.22
2023-02-06T22:01:08.951Z,103407.50
2023-02-06T22:03:37.120Z,103394.91
2023-02-06T22:06:08.703Z,103404.78
2023-02-06T22:08:36.746Z,103410.22
2023-02-06T22:11:12.509Z,103413.94
2023-02-06T22:13:40.733Z,103408.50
2023-02-06T22:16:11.113Z,103413.25
2023-02-06T22:18:39.131Z,103407.66
2023-02-06T22:21:07.645Z,103409.34
2023-02-06T22:23:35.703Z,103403.91
2023-02-06T22:26:04.022Z,103394.91
2023-02-06T22:28:32.265Z,103398.66
2023-02-06T22:31:05.826Z,103381.31
2023-02-06T22:33:35.337Z,103380.31
2023-02-06T22:36:05.359Z,103373.19
2023-02-06T22:38:33.328Z,103379.66
2023-02-06T22:41:01.649Z,103391.38
2023-02-06T22:43:29.614Z,103393.38
2023-02-06T22:45:57.836Z,103400.34
2023-02-06T22:48:25.750Z,103412.94
2023-02-06T22:50:55.136Z,103404.78
2023-02-06T22:53:32.716Z,103417.22
2023-02-06T22:56:18.895Z,103408.22
2023-02-06T22:58:47.060Z,103396.50
2023-02-06T23:01:15.217Z,103407.34
2023-02-06T23:03:43.978Z,103408.22
2023-02-06T23:06:14.964Z,103415.38
2023-02-06T23:08:43.545Z,103416.38
2023-02-06T23:11:11.544Z,103419.06
2023-02-06T23:13:39.467Z,103415.38
2023-02-06T23:16:08.230Z,103414.50
2023-02-06T23:18:36.227Z,103411.78
2023-02-06T23:21:05.298Z,103418.94
2023-02-06T23:23:34.643Z,103415.38
2023-02-06T23:26:03.248Z,103397.34
2023-02-06T23:28:31.136Z,103402.78
2023-02-06T23:30:59.103Z,103404.50
2023-02-06T23:33:27.046Z,103410.94
2023-02-06T23:35:55.221Z,103419.94
2023-02-06T23:38:23.176Z,103403.91
2023-02-06T23:40:52.473Z,103398.34
2023-02-06T23:43:20.422Z,103403.78
2023-02-06T23:45:48.667Z,103405.50
2023-02-06T23:48:16.547Z,103401.06
2023-02-06T23:50:44.428Z,103410.22
2023-02-06T23:53:12.365Z,103412.94
2023-02-06T23:55:40.392Z,103409.34
2023-02-06T23:58:09.731Z,103407.50
